createdAt,value
2022-12-25T00:00:56.097Z,6.70
2022-12-25T00:03:23.397Z,4.43
2022-12-25T00:05:50.743Z,4.60
2022-12-25T00:08:17.944Z,5.10
2022-12-25T00:10:45.758Z,4.30
2022-12-25T00:13:13.067Z,3.80
2022-12-25T00:15:41.565Z,4.00
2022-12-25T00:18:08.850Z,3.58
2022-12-25T00:20:36.171Z,3.72
2022-12-25T00:23:03.455Z,3.92
2022-12-25T00:25:30.649Z,3.53
2022-12-25T00:27:57.883Z,3.88
2022-12-25T00:30:25.066Z,3.30
2022-12-25T00:32:52.302Z,2.97
2022-12-25T00:35:19.479Z,2.88
2022-12-25T00:37:46.684Z,2.85
2022-12-25T00:40:14.005Z,2.65
2022-12-25T00:42:41.198Z,2.72
2022-12-25T00:45:08.762Z,2.53
2022-12-25T00:47:35.965Z,2.67
2022-12-25T00:50:03.265Z,2.60
2022-12-25T00:52:30.956Z,2.42
2022-12-25T00:54:58.140Z,2.42
2022-12-25T00:57:25.307Z,2.40
2022-12-25T00:59:52.488Z,2.30
2022-12-25T01:02:25.919Z,2.22
2022-12-25T01:04:56.891Z,2.38
2022-12-25T01:07:25.051Z,2.35
2022-12-25T01:10:10.865Z,2.35
2022-12-25T01:12:40.302Z,2.00
2022-12-25T01:15:08.493Z,2.28
2022-12-25T01:17:35.771Z,2.20
2022-12-25T01:20:03.380Z,1.90
2022-12-25T01:22:30.634Z,1.90
2022-12-25T01:24:57.813Z,1.98
2022-12-25T01:27:25.077Z,1.70
2022-12-25T01:29:52.292Z,1.70
2022-12-25T01:32:19.498Z,2.17
2022-12-25T01:34:50.597Z,1.88
2022-12-25T01:37:24.600Z,1.70
2022-12-25T01:39:51.893Z,1.77
2022-12-25T01:42:20.310Z,1.42
2022-12-25T01:44:47.471Z,1.70
2022-12-25T01:47:15.349Z,1.90
2022-12-25T01:49:44.103Z,1.73
2022-12-25T01:52:20.314Z,1.75
2022-12-25T01:54:55.040Z,1.50
2022-12-25T01:57:24.560Z,1.50
2022-12-25T01:59:51.771Z,1.50
2022-12-25T02:02:19.086Z,1.40
2022-12-25T02:04:57.389Z,1.30
2022-12-25T02:07:26.152Z,1.30
2022-12-25T02:09:53.522Z,1.30
2022-12-25T02:12:32.926Z,1.30
2022-12-25T02:15:05.785Z,1.40
2022-12-25T02:17:41.787Z,1.20
2022-12-25T02:20:20.607Z,1.30
2022-12-25T02:23:05.281Z,1.35
2022-12-25T02:25:47.836Z,1.40
2022-12-25T02:28:45.627Z,1.50
2022-12-25T02:31:22.266Z,1.33
2022-12-25T02:34:04.009Z,1.40
2022-12-25T02:36:46.606Z,1.30
2022-12-25T02:39:41.096Z,1.50
2022-12-25T02:42:09.171Z,1.73
2022-12-25T02:44:54.835Z,1.50
2022-12-25T02:47:40.282Z,1.50
2022-12-25T02:50:26.318Z,1.58
2022-12-25T02:53:11.873Z,1.42
2022-12-25T02:55:58.883Z,1.55
2022-12-25T02:58:44.715Z,1.90
2022-12-25T03:01:35.495Z,1.30
2022-12-25T03:04:24.119Z,1.48
2022-12-25T03:07:02.129Z,1.55
2022-12-25T03:09:50.260Z,1.52
2022-12-25T03:12:39.497Z,1.52
2022-12-25T03:15:25.956Z,1.20
2022-12-25T03:17:53.189Z,1.10
2022-12-25T03:20:38.888Z,1.20
2022-12-25T03:23:24.799Z,1.02
2022-12-25T03:26:10.432Z,1.23
2022-12-25T03:28:37.628Z,1.20
2022-12-25T03:31:13.752Z,1.35
2022-12-25T03:34:10.749Z,1.17
2022-12-25T03:37:13.255Z,1.27
2022-12-25T03:39:55.019Z,1.10
2022-12-25T03:42:46.668Z,1.30
2022-12-25T03:45:43.389Z,1.27
2022-12-25T03:48:31.034Z,1.02
2022-12-25T03:51:20.792Z,1.23
2022-12-25T03:54:18.572Z,1.00
2022-12-25T03:57:04.437Z,1.10
2022-12-25T03:59:49.909Z,0.93
2022-12-25T04:02:35.862Z,1.20
2022-12-25T04:05:21.717Z,1.10
2022-12-25T04:08:07.191Z,1.15
2022-12-25T04:10:53.190Z,1.25
2022-12-25T04:13:38.743Z,1.02
2022-12-25T04:16:24.715Z,1.30
2022-12-25T04:19:10.432Z,1.17
2022-12-25T04:21:56.220Z,1.33
2022-12-25T04:24:41.949Z,1.13
2022-12-25T04:27:27.829Z,1.17
2022-12-25T04:30:13.905Z,0.90
2022-12-25T04:32:59.863Z,1.05
2022-12-25T04:35:45.475Z,1.27
2022-12-25T04:38:12.705Z,1.10
2022-12-25T04:40:39.925Z,1.10
2022-12-25T04:43:07.112Z,1.30
2022-12-25T04:45:34.291Z,1.23
2022-12-25T04:48:01.480Z,1.13
2022-12-25T04:50:28.663Z,1.08
2022-12-25T04:52:55.894Z,1.25
2022-12-25T04:55:23.067Z,1.30
2022-12-25T04:57:50.290Z,1.63
2022-12-25T05:00:17.905Z,1.75
2022-12-25T05:02:45.301Z,1.70
2022-12-25T05:05:12.654Z,1.60
2022-12-25T05:07:39.851Z,1.52
2022-12-25T05:10:07.620Z,1.40
2022-12-25T05:12:34.906Z,1.40
2022-12-25T05:15:02.081Z,1.20
2022-12-25T05:17:29.275Z,1.30
2022-12-25T05:19:56.475Z,1.25
2022-12-25T05:22:23.709Z,1.30
2022-12-25T05:24:50.929Z,1.50
2022-12-25T05:27:18.195Z,1.30
2022-12-25T05:29:45.422Z,1.20
2022-12-25T05:32:12.636Z,2.42
2022-12-25T05:34:39.874Z,1.20
2022-12-25T05:37:07.150Z,1.23
2022-12-25T05:39:34.445Z,1.02
2022-12-25T05:42:01.676Z,1.30
2022-12-25T05:44:28.865Z,1.30
2022-12-25T05:46:56.144Z,1.10
2022-12-25T05:49:23.435Z,1.13
2022-12-25T05:51:50.628Z,1.17
2022-12-25T05:54:17.804Z,2.60
2022-12-25T05:56:44.995Z,1.20
2022-12-25T05:59:12.159Z,1.10
2022-12-25T06:01:39.553Z,1.08
2022-12-25T06:04:12.209Z,1.20
2022-12-25T06:06:40.624Z,1.23
2022-12-25T06:09:07.831Z,1.02
2022-12-25T06:11:35.001Z,1.20
2022-12-25T06:14:02.196Z,1.35
2022-12-25T06:16:35.633Z,1.38
2022-12-25T06:19:05.080Z,1.40
2022-12-25T06:21:32.281Z,1.10
2022-12-25T06:24:02.762Z,1.15
2022-12-25T06:26:30.028Z,1.27
2022-12-25T06:28:57.233Z,1.30
2022-12-25T06:31:24.631Z,1.23
2022-12-25T06:33:51.975Z,1.33
2022-12-25T06:36:21.255Z,1.20
2022-12-25T06:38:48.490Z,1.40
2022-12-25T06:41:17.445Z,1.40
2022-12-25T06:43:48.298Z,1.40
2022-12-25T06:46:15.585Z,1.60
2022-12-25T06:48:47.948Z,1.30
2022-12-25T06:51:16.438Z,1.50
2022-12-25T06:53:43.687Z,1.40
2022-12-25T06:56:15.956Z,1.52
2022-12-25T06:58:44.244Z,1.50
2022-12-25T07:01:21.466Z,1.20
2022-12-25T07:03:49.592Z,1.30
2022-12-25T07:06:16.777Z,1.23
2022-12-25T07:08:43.974Z,1.40
2022-12-25T07:11:11.191Z,1.40
2022-12-25T07:13:38.385Z,1.25
2022-12-25T07:16:07.471Z,1.17
2022-12-25T07:18:34.815Z,1.30
2022-12-25T07:21:12.801Z,1.40
2022-12-25T07:23:40.329Z,1.38
2022-12-25T07:26:07.557Z,1.60
2022-12-25T07:28:34.785Z,1.60
2022-12-25T07:31:09.731Z,1.58
2022-12-25T07:33:36.918Z,1.30
2022-12-25T07:36:05.393Z,1.50
2022-12-25T07:38:32.809Z,1.27
2022-12-25T07:41:00.097Z,1.70
2022-12-25T07:43:27.530Z,1.50
2022-12-25T07:45:58.682Z,1.60
2022-12-25T07:48:26.635Z,1.63
2022-12-25T07:51:10.711Z,1.40
2022-12-25T07:53:38.095Z,1.92
2022-12-25T07:56:11.486Z,1.30
2022-12-25T07:58:38.900Z,1.30
2022-12-25T08:01:18.063Z,1.40
2022-12-25T08:03:53.109Z,1.50
2022-12-25T08:06:20.716Z,1.35
2022-12-25T08:08:47.972Z,1.25
2022-12-25T08:11:15.261Z,1.60
2022-12-25T08:13:42.473Z,1.20
2022-12-25T08:16:10.144Z,1.10
2022-12-25T08:18:38.089Z,1.23
2022-12-25T08:21:06.911Z,1.50
2022-12-25T08:23:35.198Z,1.45
2022-12-25T08:26:05.373Z,1.35
2022-12-25T08:28:34.171Z,1.30
2022-12-25T08:31:16.899Z,1.20
2022-12-25T08:33:44.306Z,1.48
2022-12-25T08:36:12.297Z,1.30
2022-12-25T08:38:39.756Z,1.45
2022-12-25T08:41:07.014Z,1.60
2022-12-25T08:43:34.200Z,1.73
2022-12-25T08:46:01.621Z,1.50
2022-12-25T08:48:28.894Z,1.60
2022-12-25T08:50:56.170Z,1.42
2022-12-25T08:53:23.552Z,1.40
2022-12-25T08:56:00.354Z,1.73
2022-12-25T08:58:27.835Z,1.35
2022-12-25T09:00:55.314Z,1.45
2022-12-25T09:03:23.210Z,1.40
2022-12-25T09:05:51.148Z,1.20
2022-12-25T09:08:18.771Z,1.35
2022-12-25T09:10:46.007Z,1.10
2022-12-25T09:13:13.615Z,0.95
2022-12-25T09:15:40.952Z,1.05
2022-12-25T09:18:08.195Z,1.35
2022-12-25T09:20:35.392Z,1.38
2022-12-25T09:23:02.683Z,1.20
2022-12-25T09:25:29.881Z,1.50
2022-12-25T09:27:57.156Z,1.38
2022-12-25T09:30:24.396Z,1.58
2022-12-25T09:32:51.678Z,1.70
2022-12-25T09:35:19.028Z,1.50
2022-12-25T09:37:46.242Z,1.40
2022-12-25T09:40:20.602Z,1.23
2022-12-25T09:42:48.099Z,1.73
2022-12-25T09:45:18.298Z,1.55
2022-12-25T09:47:46.858Z,1.50
2022-12-25T09:50:23.836Z,1.35
2022-12-25T09:52:52.751Z,1.38
2022-12-25T09:55:21.929Z,1.35
2022-12-25T09:57:54.214Z,1.60
2022-12-25T10:00:23.266Z,1.55
2022-12-25T10:03:00.653Z,1.35
2022-12-25T10:05:53.473Z,1.67
2022-12-25T10:08:57.877Z,1.20
2022-12-25T10:11:41.057Z,1.02
2022-12-25T10:14:32.923Z,1.10
2022-12-25T10:17:03.268Z,0.98
2022-12-25T10:19:52.624Z,1.00
2022-12-25T10:22:24.515Z,1.10
2022-12-25T10:24:52.786Z,1.30
2022-12-25T10:27:33.323Z,1.23
2022-12-25T10:30:00.595Z,1.10
2022-12-25T10:32:27.873Z,1.13
2022-12-25T10:34:55.053Z,1.50
2022-12-25T10:37:22.259Z,1.20
2022-12-25T10:39:49.488Z,1.30
2022-12-25T10:42:29.057Z,1.23
2022-12-25T10:45:00.108Z,1.30
2022-12-25T10:47:29.699Z,1.50
2022-12-25T10:49:57.161Z,1.35
2022-12-25T10:52:26.362Z,1.20
2022-12-25T10:54:53.752Z,1.08
2022-12-25T10:57:22.536Z,1.02
2022-12-25T10:59:51.598Z,0.88
2022-12-25T11:02:18.825Z,0.80
2022-12-25T11:04:47.309Z,1.00
2022-12-25T11:07:15.556Z,0.95
2022-12-25T11:09:52.591Z,0.98
2022-12-25T11:12:20.655Z,1.20
2022-12-25T11:14:59.154Z,0.95
2022-12-25T11:17:27.497Z,1.13
2022-12-25T11:19:59.277Z,0.98
2022-12-25T11:22:26.608Z,1.10
2022-12-25T11:24:53.839Z,0.90
2022-12-25T11:27:26.563Z,0.90
2022-12-25T11:30:12.652Z,1.00
2022-12-25T11:32:48.622Z,0.82
2022-12-25T11:35:17.439Z,0.98
2022-12-25T11:37:53.413Z,0.90
2022-12-25T11:40:39.548Z,1.00
2022-12-25T11:43:15.009Z,1.00
2022-12-25T11:45:46.261Z,1.05
2022-12-25T11:48:30.539Z,1.00
2022-12-25T11:50:59.285Z,1.00
2022-12-25T11:53:41.167Z,1.00
2022-12-25T11:56:19.750Z,1.00
2022-12-25T11:58:48.301Z,1.17
2022-12-25T12:01:30.349Z,1.00
2022-12-25T12:03:59.301Z,1.20
2022-12-25T12:06:33.753Z,1.00
2022-12-25T12:09:27.309Z,1.35
2022-12-25T12:12:08.224Z,1.20
2022-12-25T12:15:03.111Z,1.05
2022-12-25T12:17:31.676Z,0.85
2022-12-25T12:19:58.898Z,1.20
2022-12-25T12:22:27.533Z,1.10
2022-12-25T12:24:59.899Z,1.08
2022-12-25T12:27:31.303Z,1.10
2022-12-25T12:29:58.984Z,1.00
2022-12-25T12:32:39.677Z,1.27
2022-12-25T12:35:13.870Z,1.00
2022-12-25T12:37:41.202Z,1.00
2022-12-25T12:40:21.583Z,1.00
2022-12-25T12:42:50.604Z,0.98
2022-12-25T12:45:25.079Z,1.00
2022-12-25T12:47:52.465Z,1.02
2022-12-25T12:50:35.945Z,1.00
2022-12-25T12:53:26.922Z,1.00
2022-12-25T12:55:54.280Z,1.00
2022-12-25T12:58:48.342Z,0.90
2022-12-25T13:01:27.961Z,0.85
2022-12-25T13:04:07.227Z,0.82
2022-12-25T13:06:37.595Z,1.15
2022-12-25T13:09:16.948Z,0.80
2022-12-25T13:11:44.145Z,0.80
2022-12-25T13:14:22.011Z,0.90
2022-12-25T13:16:51.401Z,0.82
2022-12-25T13:19:22.109Z,0.80
2022-12-25T13:21:57.108Z,0.88
2022-12-25T13:24:26.061Z,1.00
2022-12-25T13:26:53.280Z,0.93
2022-12-25T13:29:36.381Z,0.90
2022-12-25T13:32:04.804Z,0.95
2022-12-25T13:34:34.477Z,0.90
2022-12-25T13:37:09.488Z,1.05
2022-12-25T13:39:36.901Z,0.90
2022-12-25T13:42:05.465Z,1.10
2022-12-25T13:44:56.388Z,1.00
2022-12-25T13:47:31.543Z,1.30
2022-12-25T13:49:59.976Z,0.95
2022-12-25T13:52:33.836Z,0.90
2022-12-25T13:55:02.666Z,1.13
2022-12-25T13:57:33.239Z,1.10
2022-12-25T14:00:00.699Z,1.02
2022-12-25T14:02:37.595Z,1.20
2022-12-25T14:05:23.831Z,1.38
2022-12-25T14:07:54.923Z,1.05
2022-12-25T14:10:23.241Z,1.00
2022-12-25T14:12:51.231Z,1.27
2022-12-25T14:15:21.077Z,1.33
2022-12-25T14:17:49.725Z,1.17
2022-12-25T14:20:30.503Z,1.30
2022-12-25T14:22:58.667Z,1.50
2022-12-25T14:25:35.120Z,1.45
2022-12-25T14:28:06.328Z,1.50
2022-12-25T14:30:33.547Z,1.48
2022-12-25T14:33:02.614Z,1.30
2022-12-25T14:35:29.799Z,1.80
2022-12-25T14:37:59.931Z,1.65
2022-12-25T14:40:30.801Z,1.85
2022-12-25T14:42:59.896Z,1.52
2022-12-25T14:45:34.947Z,1.80
2022-12-25T14:48:17.499Z,1.92
2022-12-25T14:51:03.554Z,2.08
2022-12-25T14:53:38.565Z,2.00
2022-12-25T14:56:06.571Z,2.08
2022-12-25T14:58:37.379Z,2.63
2022-12-25T15:01:04.814Z,2.13
2022-12-25T15:03:35.576Z,2.53
2022-12-25T15:06:24.834Z,4.25
2022-12-25T15:09:00.045Z,4.30
2022-12-25T15:11:27.563Z,3.28
2022-12-25T15:13:54.773Z,2.92
2022-12-25T15:16:25.954Z,3.00
2022-12-25T15:18:53.225Z,3.13
2022-12-25T15:21:27.780Z,3.38
2022-12-25T15:23:55.162Z,2.95
2022-12-25T15:26:22.661Z,2.83
2022-12-25T15:28:49.953Z,2.47
2022-12-25T15:31:20.952Z,2.72
2022-12-25T15:33:48.905Z,2.78
2022-12-25T15:36:16.187Z,3.10
2022-12-25T15:38:43.600Z,2.70
2022-12-25T15:41:34.810Z,2.58
2022-12-25T15:44:02.216Z,3.10
2022-12-25T15:46:29.499Z,2.58
2022-12-25T15:48:56.760Z,3.17
2022-12-25T15:51:23.961Z,2.95
2022-12-25T15:53:51.196Z,2.80
2022-12-25T15:56:18.396Z,3.13
2022-12-25T15:58:45.576Z,2.95
2022-12-25T16:01:17.024Z,3.05
2022-12-25T16:03:44.511Z,2.90
2022-12-25T16:06:12.710Z,2.63
2022-12-25T16:08:40.060Z,2.60
2022-12-25T16:11:07.515Z,3.65
2022-12-25T16:13:34.867Z,3.70
2022-12-25T16:16:02.821Z,3.28
2022-12-25T16:18:30.572Z,3.00
2022-12-25T16:20:57.755Z,3.20
2022-12-25T16:23:25.060Z,3.03
2022-12-25T16:25:52.271Z,2.70
2022-12-25T16:28:19.486Z,3.70
2022-12-25T16:30:46.744Z,3.17
2022-12-25T16:33:13.959Z,3.13
2022-12-25T16:35:41.163Z,4.03
2022-12-25T16:38:08.428Z,3.53
2022-12-25T16:40:35.638Z,3.67
2022-12-25T16:43:02.799Z,3.55
2022-12-25T16:45:30.002Z,3.85
2022-12-25T16:47:57.325Z,3.50
2022-12-25T16:50:24.606Z,4.22
2022-12-25T16:52:51.765Z,4.30
2022-12-25T16:55:18.988Z,3.85
2022-12-25T16:57:48.319Z,3.65
2022-12-25T17:00:15.958Z,3.70
2022-12-25T17:02:43.370Z,4.32
2022-12-25T17:05:10.810Z,4.50
2022-12-25T17:07:38.101Z,4.57
2022-12-25T17:10:06.717Z,4.57
2022-12-25T17:12:34.093Z,4.50
2022-12-25T17:15:01.339Z,5.30
2022-12-25T17:17:28.534Z,4.40
2022-12-25T17:19:55.735Z,4.80
2022-12-25T17:22:22.933Z,4.20
2022-12-25T17:24:50.134Z,5.10
2022-12-25T17:27:17.311Z,4.63
2022-12-25T17:29:45.037Z,4.90
2022-12-25T17:32:12.266Z,4.88
2022-12-25T17:34:39.507Z,5.00
2022-12-25T17:37:06.761Z,5.40
2022-12-25T17:39:34.000Z,5.20
2022-12-25T17:42:01.189Z,5.45
2022-12-25T17:44:28.475Z,5.80
2022-12-25T17:46:55.670Z,6.07
2022-12-25T17:49:23.331Z,5.88
2022-12-25T17:51:50.571Z,6.18
2022-12-25T17:54:17.779Z,7.00
2022-12-25T17:56:44.996Z,6.28
2022-12-25T17:59:17.824Z,5.60
2022-12-25T18:01:45.762Z,5.35
2022-12-25T18:04:13.069Z,6.55
2022-12-25T18:06:40.400Z,6.65
2022-12-25T18:09:07.727Z,7.60
2022-12-25T18:11:36.779Z,6.10
2022-12-25T18:14:05.189Z,7.03
2022-12-25T18:16:34.038Z,5.95
2022-12-25T18:19:01.383Z,4.68
2022-12-25T18:21:28.605Z,3.65
2022-12-25T18:23:55.940Z,3.00
2022-12-25T18:26:23.320Z,2.72
2022-12-25T18:28:50.889Z,2.75
2022-12-25T18:31:19.992Z,2.20
2022-12-25T18:33:47.542Z,2.67
2022-12-25T18:36:15.862Z,2.10
2022-12-25T18:38:43.111Z,2.53
2022-12-25T18:41:10.476Z,2.10
2022-12-25T18:43:52.569Z,2.50
2022-12-25T18:46:26.448Z,1.75
2022-12-25T18:48:57.286Z,1.90
2022-12-25T18:51:24.774Z,2.05
2022-12-25T18:53:52.089Z,2.20
2022-12-25T18:56:20.272Z,1.85
2022-12-25T18:58:47.516Z,2.03
2022-12-25T19:01:18.713Z,1.92
2022-12-25T19:03:48.964Z,2.10
2022-12-25T19:06:21.746Z,2.03
2022-12-25T19:08:48.959Z,1.75
2022-12-25T19:11:16.517Z,2.13
2022-12-25T19:13:43.808Z,1.95
2022-12-25T19:16:11.313Z,1.77
2022-12-25T19:18:38.884Z,2.10
2022-12-25T19:21:07.685Z,2.00
2022-12-25T19:23:35.083Z,1.77
2022-12-25T19:26:05.197Z,1.92
2022-12-25T19:28:32.504Z,2.00
2022-12-25T19:31:00.404Z,1.90
2022-12-25T19:33:27.713Z,1.88
2022-12-25T19:36:00.453Z,2.20
2022-12-25T19:38:29.262Z,1.85
2022-12-25T19:41:02.268Z,2.20
2022-12-25T19:43:30.884Z,1.92
2022-12-25T19:45:59.525Z,2.05
2022-12-25T19:48:26.751Z,2.10
2022-12-25T19:50:54.102Z,2.33
2022-12-25T19:53:23.679Z,2.42
2022-12-25T19:55:52.420Z,2.28
2022-12-25T19:58:20.440Z,2.05
2022-12-25T20:01:01.446Z,2.10
2022-12-25T20:03:28.852Z,2.05
2022-12-25T20:05:56.516Z,1.73
2022-12-25T20:08:24.206Z,1.98
2022-12-25T20:10:51.475Z,1.83
2022-12-25T20:13:18.861Z,1.75
2022-12-25T20:15:46.879Z,1.88
2022-12-25T20:18:14.257Z,1.90
2022-12-25T20:20:41.425Z,1.92
2022-12-25T20:23:08.673Z,2.00
2022-12-25T20:25:40.234Z,2.00
2022-12-25T20:28:07.481Z,1.90
2022-12-25T20:30:37.591Z,2.10
2022-12-25T20:33:04.788Z,2.90
2022-12-25T20:35:31.982Z,3.05
2022-12-25T20:37:59.229Z,2.80
2022-12-25T20:40:26.419Z,2.55
2022-12-25T20:42:53.717Z,2.70
2022-12-25T20:45:20.932Z,2.15
2022-12-25T20:47:48.246Z,2.20
2022-12-25T20:50:15.454Z,2.15
2022-12-25T20:52:42.640Z,2.40
2022-12-25T20:55:10.048Z,1.90
2022-12-25T20:57:37.270Z,2.00
2022-12-25T21:00:05.027Z,2.00
2022-12-25T21:02:36.634Z,1.85
2022-12-25T21:05:06.896Z,2.00
2022-12-25T21:07:34.145Z,1.73
2022-12-25T21:10:01.340Z,1.98
2022-12-25T21:12:28.525Z,1.85
2022-12-25T21:14:55.692Z,1.80
2022-12-25T21:17:22.910Z,1.70
2022-12-25T21:19:50.109Z,1.92
2022-12-25T21:22:17.281Z,1.75
2022-12-25T21:24:45.595Z,2.03
2022-12-25T21:27:12.813Z,1.90
2022-12-25T21:29:40.003Z,1.90
2022-12-25T21:32:25.602Z,1.70
2022-12-25T21:34:52.804Z,2.00
2022-12-25T21:37:19.988Z,1.80
2022-12-25T21:39:50.287Z,1.70
2022-12-25T21:42:17.476Z,1.60
2022-12-25T21:44:44.720Z,1.80
2022-12-25T21:47:11.893Z,1.90
2022-12-25T21:49:57.845Z,1.98
2022-12-25T21:52:25.784Z,1.92
2022-12-25T21:54:53.129Z,1.70
2022-12-25T21:57:20.318Z,2.00
2022-12-25T21:59:48.155Z,1.88
2022-12-25T22:02:15.494Z,1.70
2022-12-25T22:04:42.923Z,1.80
2022-12-25T22:07:19.052Z,2.10
2022-12-25T22:09:50.460Z,2.00
2022-12-25T22:12:37.793Z,2.20
2022-12-25T22:15:09.536Z,2.33
2022-12-25T22:17:57.092Z,2.13
2022-12-25T22:20:24.264Z,1.80
2022-12-25T22:22:51.520Z,1.70
2022-12-25T22:25:18.844Z,2.00
2022-12-25T22:27:46.525Z,2.10
2022-12-25T22:30:16.200Z,2.20
2022-12-25T22:32:43.455Z,2.20
2022-12-25T22:35:12.244Z,2.42
2022-12-25T22:37:40.700Z,2.17
2022-12-25T22:40:08.303Z,1.85
2022-12-25T22:42:35.582Z,2.22
2022-12-25T22:45:03.195Z,2.13
2022-12-25T22:47:30.425Z,1.90
2022-12-25T22:49:57.676Z,1.75
2022-12-25T22:52:24.874Z,1.90
2022-12-25T22:54:52.045Z,2.13
2022-12-25T22:57:19.315Z,1.90
2022-12-25T22:59:46.570Z,1.88
2022-12-25T23:02:13.890Z,2.40
2022-12-25T23:04:41.199Z,2.10
2022-12-25T23:07:09.315Z,2.10
2022-12-25T23:09:36.513Z,1.80
2022-12-25T23:12:03.964Z,1.73
2022-12-25T23:14:40.261Z,1.80
2022-12-25T23:17:30.550Z,1.77
2022-12-25T23:20:17.603Z,1.92
2022-12-25T23:23:03.797Z,2.10
2022-12-25T23:25:49.489Z,2.00
2022-12-25T23:28:36.658Z,2.08
2022-12-25T23:31:03.980Z,1.90
2022-12-25T23:33:31.238Z,2.00
2022-12-25T23:35:58.437Z,2.10
2022-12-25T23:38:25.634Z,1.83
2022-12-25T23:40:52.887Z,2.10
2022-12-25T23:43:20.109Z,1.85
2022-12-25T23:45:47.306Z,1.50
2022-12-25T23:48:14.496Z,2.00
2022-12-25T23:50:41.695Z,1.60
2022-12-25T23:53:10.220Z,1.73
2022-12-25T23:55:37.429Z,1.65
2022-12-25T23:58:04.689Z,1.52
